Time;durP1;ratioP1;P1;durP2;ratioP2;P2;SDS_P1;SDS_P2;PMS_P1;PMS_P2;Temp;Humidity;BMP_temperature;BMP_pressure;BME280_temperature;BME280_humidity;BME280_pressure;Samples;Min_cycle;Max_cycle;Signal;HPM_P1;HPM_P2
2020/12/31 00:01:40;;;;;;;19.23;14.90;;;5.20;99.90;;;;;;6276543;28;20473;-64
2020/12/31 00:04:45;;;;;;;19.40;14.63;;;5.20;99.90;;;;;;6276406;28;20865;-64
2020/12/31 00:07:47;;;;;;;15.57;13.73;;;5.10;99.90;;;;;;6277017;28;20458;-65
2020/12/31 00:10:49;;;;;;;21.00;14.50;;;5.10;99.90;;;;;;6276403;28;20481;-64
2020/12/31 00:13:51;;;;;;;14.67;12.77;;;5.20;99.90;;;;;;6276112;28;20470;-64
2020/12/31 00:16:53;;;;;;;21.07;13.60;;;5.20;99.90;;;;;;6276797;28;20481;-65
2020/12/31 00:19:57;;;;;;;15.03;13.10;;;5.30;99.90;;;;;;6276016;28;20466;-65
2020/12/31 00:22:59;;;;;;;28.27;14.43;;;5.20;99.90;;;;;;6275854;28;20816;-64
2020/12/31 00:26:03;;;;;;;18.50;12.67;;;5.20;99.90;;;;;;6276260;28;20503;-64
2020/12/31 00:29:06;;;;;;;14.77;11.93;;;5.20;99.90;;;;;;6275943;28;20481;-64
2020/12/31 00:32:08;;;;;;;16.93;13.00;;;5.20;99.90;;;;;;6275758;28;20475;-64
2020/12/31 00:35:13;;;;;;;16.00;12.37;;;5.20;99.90;;;;;;6275552;28;20814;-65
2020/12/31 00:38:15;;;;;;;14.10;11.77;;;5.20;99.90;;;;;;6275480;28;20962;-65
2020/12/31 00:41:19;;;;;;;15.93;12.70;;;5.20;99.90;;;;;;6275595;28;20478;-65
2020/12/31 00:44:21;;;;;;;15.83;12.67;;;5.10;99.90;;;;;;6275324;28;20527;-65
2020/12/31 00:47:23;;;;;;;15.27;13.70;;;5.20;99.90;;;;;;6274461;28;20489;-65
2020/12/31 00:50:26;;;;;;;16.67;13.70;;;5.20;99.90;;;;;;6273837;28;20962;-65
2020/12/31 00:53:28;;;;;;;18.10;15.00;;;5.20;99.90;;;;;;6272923;28;20466;-64
2020/12/31 00:56:31;;;;;;;20.73;14.80;;;5.20;99.90;;;;;;6274846;28;20470;-65
2020/12/31 00:59:35;;;;;;;15.97;12.27;;;5.20;99.90;;;;;;6274925;28;20973;-66
2020/12/31 01:02:38;;;;;;;15.30;13.60;;;5.10;99.90;;;;;;6273422;28;20486;-66
2020/12/31 01:05:41;;;;;;;15.20;11.57;;;5.10;99.90;;;;;;6274998;28;20470;-66
2020/12/31 01:08:43;;;;;;;14.50;12.33;;;5.20;99.90;;;;;;6274965;28;20477;-67
2020/12/31 01:11:45;;;;;;;15.30;12.53;;;5.10;99.90;;;;;;6274418;28;20467;-66
2020/12/31 01:14:47;;;;;;;13.30;10.97;;;5.10;99.90;;;;;;6272563;28;20477;-66
2020/12/31 01:17:50;;;;;;;16.33;12.40;;;5.10;99.90;;;;;;6273863;28;20466;-66
2020/12/31 01:20:53;;;;;;;15.20;11.80;;;5.10;99.90;;;;;;6274511;28;20950;-66
2020/12/31 01:23:57;;;;;;;14.73;12.10;;;5.10;99.90;;;;;;6274833;28;20476;-66
2020/12/31 01:27:02;;;;;;;14.80;12.40;;;5.10;99.90;;;;;;6275018;28;20474;-66
2020/12/31 01:30:05;;;;;;;13.00;10.97;;;5.20;99.90;;;;;;6273903;28;20488;-66
2020/12/31 01:33:07;;;;;;;14.40;12.67;;;5.20;99.90;;;;;;6274459;28;20966;-66
2020/12/31 01:36:10;;;;;;;12.30;10.70;;;5.20;99.90;;;;;;6273149;28;21170;-65
2020/12/31 01:39:12;;;;;;;11.93;10.73;;;5.20;99.90;;;;;;6271640;28;20478;-66
2020/12/31 01:42:14;;;;;;;11.30;9.60;;;5.20;99.90;;;;;;6273981;28;20473;-68
2020/12/31 01:45:16;;;;;;;13.97;10.73;;;5.20;99.90;;;;;;6274723;28;20470;-67
2020/12/31 01:48:19;;;;;;;13.00;10.63;;;5.30;99.90;;;;;;6274395;28;20954;-66
2020/12/31 01:51:22;;;;;;;15.97;11.47;;;5.30;99.90;;;;;;6273857;28;20470;-66
2020/12/31 01:54:25;;;;;;;10.93;9.50;;;5.40;99.90;;;;;;6273577;28;20485;-66
2020/12/31 01:57:28;;;;;;;12.07;10.10;;;5.40;99.90;;;;;;6272451;28;20470;-66
2020/12/31 02:00:30;;;;;;;14.20;11.30;;;5.40;99.90;;;;;;6273109;28;20484;-66
2020/12/31 02:03:33;;;;;;;12.00;10.70;;;5.50;99.90;;;;;;6273304;28;20489;-66
2020/12/31 02:06:37;;;;;;;11.20;10.00;;;5.50;99.90;;;;;;6273644;28;20480;-66
2020/12/31 02:09:39;;;;;;;14.60;12.83;;;5.50;99.90;;;;;;6271740;28;20973;-66
2020/12/31 02:12:42;;;;;;;13.53;12.13;;;5.40;99.90;;;;;;6273726;28;20478;-66
2020/12/31 02:15:47;;;;;;;13.60;11.83;;;5.40;99.90;;;;;;6273122;28;20458;-65
2020/12/31 02:18:54;;;;;;;12.97;10.83;;;5.40;99.90;;;;;;6273347;28;20453;-66
2020/12/31 02:21:57;;;;;;;12.03;9.20;;;5.50;99.90;;;;;;6274162;28;20493;-66
2020/12/31 02:24:59;;;;;;;13.57;11.00;;;5.50;99.90;;;;;;6273664;28;20442;-66
2020/12/31 02:28:01;;;;;;;11.97;10.40;;;5.50;99.90;;;;;;6273438;28;20477;-66
2020/12/31 02:31:04;;;;;;;11.07;9.63;;;5.40;99.90;;;;;;6273914;28;20469;-66
2020/12/31 02:34:07;;;;;;;12.13;10.03;;;5.40;99.90;;;;;;6273659;28;20985;-66
2020/12/31 02:37:10;;;;;;;11.93;8.87;;;5.30;99.90;;;;;;6273419;28;20466;-67
2020/12/31 02:40:12;;;;;;;12.90;10.07;;;5.40;99.90;;;;;;6273871;28;20966;-66
2020/12/31 02:43:14;;;;;;;12.60;9.97;;;5.40;99.90;;;;;;6273584;28;20979;-66
2020/12/31 02:46:20;;;;;;;12.10;10.30;;;5.40;99.90;;;;;;6272830;28;20481;-67
2020/12/31 02:49:22;;;;;;;10.87;9.73;;;5.30;99.90;;;;;;6273130;28;20786;-65
2020/12/31 02:52:25;;;;;;;12.00;9.90;;;5.30;99.90;;;;;;6278028;28;20470;-65
2020/12/31 02:55:27;;;;;;;11.80;10.60;;;5.20;99.90;;;;;;6277078;28;20470;-66
2020/12/31 02:58:32;;;;;;;12.67;9.70;;;5.20;99.90;;;;;;6275910;28;20466;-66
2020/12/31 03:01:34;;;;;;;11.20;8.33;;;5.20;99.90;;;;;;6276477;28;20474;-64
2020/12/31 03:04:36;;;;;;;9.80;8.07;;;5.20;99.90;;;;;;6277345;28;20470;-65
2020/12/31 03:07:39;;;;;;;9.07;8.10;;;5.10;99.90;;;;;;6275872;28;20470;-65
2020/12/31 03:10:42;;;;;;;8.80;7.27;;;5.10;99.90;;;;;;6276080;28;20485;-66
2020/12/31 03:13:44;;;;;;;7.30;6.70;;;5.10;99.90;;;;;;6277231;28;20485;-67
2020/12/31 03:16:47;;;;;;;7.43;6.73;;;5.20;99.90;;;;;;6276228;28;20833;-66
2020/12/31 03:19:51;;;;;;;6.80;6.10;;;5.20;99.90;;;;;;6275574;28;20608;-67
2020/12/31 03:22:57;;;;;;;8.40;6.43;;;5.20;99.90;;;;;;6277048;28;20480;-66
2020/12/31 03:25:59;;;;;;;8.50;6.33;;;5.20;99.90;;;;;;6277128;28;20481;-66
2020/12/31 03:29:01;;;;;;;7.20;6.50;;;5.20;99.90;;;;;;6274736;28;20474;-66
2020/12/31 03:32:03;;;;;;;6.93;6.23;;;5.20;99.90;;;;;;6275706;28;21002;-66
2020/12/31 03:35:05;;;;;;;6.07;5.47;;;5.20;99.90;;;;;;6277204;28;20477;-66
2020/12/31 03:38:09;;;;;;;5.40;4.90;;;5.30;99.90;;;;;;6275107;28;20517;-66
2020/12/31 03:41:11;;;;;;;9.30;8.40;;;5.20;99.90;;;;;;6276228;28;20639;-66
2020/12/31 03:44:13;;;;;;;8.60;7.77;;;5.30;99.90;;;;;;6276796;28;20482;-67
2020/12/31 03:47:15;;;;;;;8.67;7.40;;;5.30;99.90;;;;;;6271203;28;20489;-66
2020/12/31 03:50:17;;;;;;;7.97;6.93;;;5.30;99.90;;;;;;6275374;28;20806;-67
2020/12/31 03:53:21;;;;;;;6.67;6.00;;;5.30;99.90;;;;;;6276890;28;20462;-67
2020/12/31 03:56:23;;;;;;;6.77;5.77;;;5.30;99.90;;;;;;6276037;28;20561;-67
2020/12/31 03:59:25;;;;;;;6.67;5.87;;;5.40;99.90;;;;;;6274660;28;20810;-66
2020/12/31 04:02:27;;;;;;;6.70;5.87;;;5.40;99.90;;;;;;6275247;28;20493;-66
2020/12/31 04:05:30;;;;;;;6.00;5.13;;;5.50;99.90;;;;;;6276409;28;20985;-67
2020/12/31 04:08:33;;;;;;;5.00;4.43;;;5.40;99.90;;;;;;6274519;28;20489;-66
2020/12/31 04:11:35;;;;;;;7.13;5.10;;;5.50;99.90;;;;;;6274804;28;20579;-67
2020/12/31 04:14:38;;;;;;;5.00;4.50;;;5.50;99.90;;;;;;6276508;28;20470;-66
2020/12/31 04:17:40;;;;;;;5.03;4.40;;;5.50;99.90;;;;;;6274545;28;20493;-66
2020/12/31 04:20:44;;;;;;;5.03;4.53;;;5.50;99.90;;;;;;6274633;28;20486;-67
2020/12/31 04:23:50;;;;;;;5.73;4.60;;;5.50;99.90;;;;;;6275745;28;20477;-66
2020/12/31 04:26:53;;;;;;;4.63;4.10;;;5.30;99.90;;;;;;6275051;28;20815;-66
2020/12/31 04:29:55;;;;;;;4.80;4.30;;;5.20;99.90;;;;;;6276451;28;20485;-66
2020/12/31 04:32:57;;;;;;;4.70;4.30;;;5.10;99.90;;;;;;6274985;28;20481;-66
2020/12/31 04:35:59;;;;;;;5.20;4.53;;;5.10;99.90;;;;;;6275117;28;20474;-66
2020/12/31 04:39:03;;;;;;;5.63;4.57;;;5.10;99.90;;;;;;6273774;28;20484;-66
2020/12/31 04:42:05;;;;;;;4.70;3.93;;;5.10;99.90;;;;;;6274239;28;20482;-66
2020/12/31 04:45:10;;;;;;;5.87;4.70;;;5.00;99.90;;;;;;6275358;28;20466;-66
2020/12/31 04:48:24;;;;;;;6.83;4.73;;;5.00;99.90;;;;;;6273842;28;20478;-66
2020/12/31 04:51:27;;;;;;;4.67;3.50;;;4.90;99.90;;;;;;6273875;28;20474;-66
2020/12/31 04:54:31;;;;;;;3.53;3.23;;;4.90;99.90;;;;;;6274813;28;20466;-66
2020/12/31 04:57:34;;;;;;;4.70;4.20;;;4.90;99.90;;;;;;6273759;28;20955;-66
2020/12/31 05:00:37;;;;;;;4.63;4.23;;;4.80;99.90;;;;;;6273451;28;20485;-66
2020/12/31 05:03:39;;;;;;;5.40;3.37;;;4.70;99.90;;;;;;6274542;28;20841;-66
2020/12/31 05:06:44;;;;;;;4.17;3.77;;;4.80;99.90;;;;;;6274058;28;20484;-66
2020/12/31 05:10:08;;;;;;;5.70;4.60;;;4.80;99.90;;;;;;6273328;28;20469;-65
2020/12/31 05:13:10;;;;;;;4.13;3.70;;;4.80;99.90;;;;;;6273186;28;20466;-66
2020/12/31 05:16:13;;;;;;;5.40;4.40;;;4.90;99.90;;;;;;6274198;28;20481;-66
2020/12/31 05:19:25;;;;;;;5.17;4.67;;;4.90;99.90;;;;;;6273553;28;20470;-66
2020/12/31 05:22:27;;;;;;;5.30;4.80;;;4.90;99.90;;;;;;6274004;28;20474;-66
2020/12/31 05:25:35;;;;;;;5.10;4.60;;;5.00;99.90;;;;;;6274295;28;20540;-66
2020/12/31 05:28:39;;;;;;;4.93;4.17;;;5.00;99.90;;;;;;6274183;28;20476;-66
2020/12/31 05:31:54;;;;;;;5.07;4.57;;;5.00;99.90;;;;;;6274473;28;20970;-66
2020/12/31 05:34:58;;;;;;;4.90;3.77;;;5.00;99.90;;;;;;6274614;28;20466;-66
2020/12/31 05:38:00;;;;;;;5.63;4.23;;;5.10;99.90;;;;;;6273083;28;20471;-66
2020/12/31 05:41:04;;;;;;;5.90;4.83;;;5.10;99.90;;;;;;6272644;28;20957;-66
2020/12/31 05:44:08;;;;;;;6.10;4.80;;;5.10;99.90;;;;;;6273690;28;20475;-66
2020/12/31 05:47:17;;;;;;;4.67;4.27;;;5.00;99.90;;;;;;6273138;28;20957;-66
2020/12/31 05:50:22;;;;;;;5.30;4.90;;;5.00;99.90;;;;;;6272833;28;20489;-66
2020/12/31 05:53:25;;;;;;;5.77;5.20;;;5.00;99.90;;;;;;6274019;28;20462;-66
2020/12/31 05:56:32;;;;;;;7.00;5.13;;;4.90;99.90;;;;;;6268997;28;20474;-66
2020/12/31 05:59:38;;;;;;;6.53;5.37;;;5.00;99.90;;;;;;6272340;28;20474;-66
2020/12/31 06:02:44;;;;;;;6.77;5.77;;;5.00;99.90;;;;;;6272217;28;21169;-65
2020/12/31 06:06:03;;;;;;;6.00;5.03;;;5.00;99.90;;;;;;6272373;28;20474;-66
2020/12/31 06:09:16;;;;;;;6.60;5.37;;;5.00;99.90;;;;;;6271919;28;20482;-65
2020/12/31 06:12:29;;;;;;;9.90;5.27;;;5.10;99.90;;;;;;6273029;28;20475;-66
2020/12/31 06:15:34;;;;;;;5.53;4.93;;;5.00;99.90;;;;;;6274380;28;20471;-65
2020/12/31 06:18:43;;;;;;;7.50;5.50;;;5.10;99.90;;;;;;6271876;28;20470;-65
2020/12/31 06:22:02;;;;;;;6.70;5.67;;;5.10;99.90;;;;;;6271812;28;20474;-65
2020/12/31 06:25:05;;;;;;;5.70;5.20;;;5.20;99.90;;;;;;6275122;28;20808;-65
2020/12/31 06:28:10;;;;;;;6.27;5.67;;;5.20;99.90;;;;;;6276941;28;20462;-66
2020/12/31 06:31:13;;;;;;;5.93;5.33;;;5.20;99.90;;;;;;6276938;28;20474;-65
2020/12/31 06:34:19;;;;;;;6.20;5.03;;;5.20;99.90;;;;;;6278153;28;20979;-65
2020/12/31 06:37:22;;;;;;;5.90;4.97;;;5.20;99.90;;;;;;6277056;28;20806;-65
2020/12/31 06:40:26;;;;;;;6.03;5.00;;;5.30;99.90;;;;;;6276682;28;20470;-65
2020/12/31 06:43:33;;;;;;;6.80;5.50;;;5.30;99.90;;;;;;6275736;28;20481;-65
2020/12/31 06:46:41;;;;;;;7.70;5.70;;;5.30;99.90;;;;;;6277068;28;20477;-65
2020/12/31 06:50:00;;;;;;;9.83;7.80;;;5.10;99.90;;;;;;6278105;28;20477;-65
2020/12/31 06:53:28;;;;;;;10.50;7.47;;;5.10;99.90;;;;;;6278161;28;20485;-66
2020/12/31 06:56:46;;;;;;;8.93;6.77;;;5.00;99.90;;;;;;6278442;28;20489;-66
2020/12/31 06:59:49;;;;;;;8.03;7.23;;;5.00;99.90;;;;;;6276457;28;20477;-66
2020/12/31 07:02:51;;;;;;;8.73;7.90;;;4.90;99.90;;;;;;6277836;28;20488;-66
2020/12/31 07:06:13;;;;;;;9.00;7.90;;;4.90;99.90;;;;;;6277699;28;20808;-66
2020/12/31 07:09:35;;;;;;;9.80;7.30;;;4.90;99.90;;;;;;6277520;28;20505;-66
2020/12/31 07:12:40;;;;;;;13.50;7.70;;;4.80;99.90;;;;;;6277413;28;20960;-66
2020/12/31 07:15:43;;;;;;;8.53;7.73;;;4.70;99.90;;;;;;6277443;28;20579;-66
2020/12/31 07:18:45;;;;;;;9.30;8.37;;;4.70;99.90;;;;;;6277770;28;20470;-65
2020/12/31 07:21:50;;;;;;;9.83;8.53;;;4.60;99.90;;;;;;6277098;28;20462;-66
2020/12/31 07:24:55;;;;;;;9.83;8.30;;;4.70;99.90;;;;;;6277555;28;20441;-66
2020/12/31 07:28:03;;;;;;;10.10;7.70;;;4.80;99.90;;;;;;6277617;28;20436;-66
2020/12/31 07:31:06;;;;;;;9.20;8.23;;;4.80;99.90;;;;;;6277022;28;20907;-66
2020/12/31 07:34:25;;;;;;;8.77;7.83;;;4.90;99.90;;;;;;6277279;28;20462;-66
2020/12/31 07:37:27;;;;;;;9.43;8.20;;;4.90;99.90;;;;;;6276855;28;20477;-66
2020/12/31 07:40:35;;;;;;;9.90;8.43;;;5.00;99.90;;;;;;6277110;28;20478;-66
2020/12/31 07:43:38;;;;;;;12.20;9.30;;;5.10;99.90;;;;;;6277158;28;20542;-67
2020/12/31 07:46:43;;;;;;;9.00;8.10;;;5.10;99.90;;;;;;6276955;28;20481;-65
2020/12/31 07:49:45;;;;;;;10.53;9.43;;;5.20;99.90;;;;;;6277001;28;20463;-66
2020/12/31 07:52:48;;;;;;;9.47;8.37;;;5.30;99.90;;;;;;6276692;28;20485;-66
2020/12/31 07:55:51;;;;;;;11.57;9.10;;;5.30;99.90;;;;;;6276767;28;20506;-66
2020/12/31 07:58:56;;;;;;;10.60;8.83;;;5.40;99.90;;;;;;6276805;28;20480;-66
2020/12/31 08:02:06;;;;;;;9.37;8.37;;;5.50;99.90;;;;;;6276003;28;20489;-66
2020/12/31 08:05:12;;;;;;;8.83;7.87;;;5.50;99.90;;;;;;6276834;28;20467;-66
2020/12/31 08:08:17;;;;;;;10.23;9.20;;;5.60;99.90;;;;;;6276573;28;20466;-66
2020/12/31 08:11:19;;;;;;;8.53;7.73;;;5.60;99.90;;;;;;6276287;28;20473;-65
2020/12/31 08:14:21;;;;;;;9.00;8.10;;;5.60;99.90;;;;;;6276061;28;20807;-66
2020/12/31 08:17:24;;;;;;;7.90;7.20;;;5.60;99.90;;;;;;6276039;28;20466;-66
2020/12/31 08:20:31;;;;;;;8.53;7.73;;;5.70;99.90;;;;;;6276302;28;20470;-66
2020/12/31 08:23:37;;;;;;;8.80;7.90;;;5.70;99.90;;;;;;6276188;28;20482;-65
2020/12/31 08:26:54;;;;;;;10.80;8.90;;;5.80;99.90;;;;;;6275853;28;20804;-66
2020/12/31 08:29:58;;;;;;;14.23;12.93;;;5.90;99.90;;;;;;6275797;28;20814;-65
2020/12/31 08:33:02;;;;;;;9.27;8.47;;;5.90;99.90;;;;;;6276014;28;20469;-66
2020/12/31 08:36:04;;;;;;;10.93;8.87;;;6.00;99.90;;;;;;6276110;28;20481;-66
2020/12/31 08:39:08;;;;;;;8.90;8.10;;;6.10;99.90;;;;;;6276026;28;20471;-66
2020/12/31 08:42:15;;;;;;;9.20;8.30;;;6.20;99.90;;;;;;6275259;28;20482;-66
2020/12/31 08:45:25;;;;;;;8.97;8.07;;;6.30;99.90;;;;;;6275450;28;20779;-66
2020/12/31 08:48:29;;;;;;;11.83;8.10;;;6.50;99.90;;;;;;6275589;28;20474;-66
2020/12/31 08:51:31;;;;;;;8.80;8.03;;;6.60;99.90;;;;;;6274990;28;20974;-65
2020/12/31 08:54:34;;;;;;;9.03;8.20;;;6.70;99.90;;;;;;6275372;28;20479;-66
2020/12/31 08:57:37;;;;;;;10.53;9.43;;;6.70;99.90;;;;;;6274813;28;20474;-66
2020/12/31 09:00:42;;;;;;;11.13;9.83;;;6.80;99.90;;;;;;6274554;28;20489;-66
2020/12/31 09:03:45;;;;;;;12.90;9.33;;;6.80;99.90;;;;;;6274624;28;20651;-65
2020/12/31 09:06:51;;;;;;;10.40;9.30;;;6.80;99.90;;;;;;6270516;28;20454;-65
2020/12/31 09:09:53;;;;;;;9.90;8.90;;;7.00;99.90;;;;;;6275164;28;20433;-65
2020/12/31 09:12:56;;;;;;;8.40;7.60;;;7.10;99.90;;;;;;6274535;28;20474;-66
2020/12/31 09:16:08;;;;;;;7.40;6.70;;;7.30;99.90;;;;;;6275029;28;20451;-66
2020/12/31 09:19:12;;;;;;;9.03;7.60;;;7.30;99.90;;;;;;6274772;28;20471;-66
2020/12/31 09:22:14;;;;;;;9.53;7.60;;;7.50;99.90;;;;;;6274490;28;20969;-66
2020/12/31 09:25:17;;;;;;;10.37;7.53;;;7.60;99.90;;;;;;6274489;28;20814;-66
2020/12/31 09:28:19;;;;;;;7.50;6.70;;;7.70;99.90;;;;;;6275004;28;20484;-66
2020/12/31 09:31:25;;;;;;;7.60;6.90;;;7.80;99.90;;;;;;6275157;28;20482;-66
2020/12/31 09:34:29;;;;;;;8.53;7.23;;;7.90;99.90;;;;;;6274762;28;20498;-66
2020/12/31 09:37:43;;;;;;;10.23;7.50;;;8.00;99.90;;;;;;6274346;28;20797;-66
2020/12/31 09:40:46;;;;;;;8.87;7.80;;;8.00;99.90;;;;;;6274157;28;20489;-66
2020/12/31 09:43:50;;;;;;;10.50;7.80;;;8.10;99.90;;;;;;6274326;28;20478;-66
2020/12/31 09:46:52;;;;;;;8.23;7.10;;;8.10;99.90;;;;;;6274753;28;20474;-66
2020/12/31 09:49:55;;;;;;;7.03;6.43;;;7.90;99.90;;;;;;6274334;28;20466;-66
2020/12/31 09:52:57;;;;;;;8.57;6.60;;;7.90;99.90;;;;;;6274348;28;20474;-66
2020/12/31 09:56:17;;;;;;;8.23;7.43;;;7.90;99.90;;;;;;6274764;28;20474;-66
2020/12/31 09:59:19;;;;;;;7.97;7.17;;;8.00;99.90;;;;;;6276268;28;20462;-66
2020/12/31 10:02:21;;;;;;;8.77;7.97;;;7.80;99.90;;;;;;6278508;28;20466;-66
2020/12/31 10:05:27;;;;;;;10.10;8.67;;;7.70;99.90;;;;;;6275395;28;20759;-66
2020/12/31 10:08:29;;;;;;;9.43;7.57;;;7.70;99.90;;;;;;6278520;28;20980;-66
2020/12/31 10:11:31;;;;;;;8.87;7.50;;;7.60;99.90;;;;;;6278048;28;20492;-66
2020/12/31 10:14:34;;;;;;;7.80;6.90;;;7.60;99.90;;;;;;6278522;28;20600;-66
2020/12/31 10:17:36;;;;;;;8.13;7.27;;;7.60;99.90;;;;;;6278627;28;20467;-66
2020/12/31 10:20:39;;;;;;;8.40;7.60;;;7.60;99.90;;;;;;6276977;28;20470;-66
2020/12/31 10:23:42;;;;;;;6.80;6.17;;;7.50;99.90;;;;;;6270790;28;20485;-66
2020/12/31 10:26:44;;;;;;;6.83;6.20;;;7.50;99.90;;;;;;6253522;28;20951;-63
2020/12/31 10:29:49;;;;;;;6.97;6.27;;;7.50;99.90;;;;;;6275952;28;20962;-68
2020/12/31 10:32:51;;;;;;;9.23;6.47;;;7.50;99.90;;;;;;6263018;28;20474;-67
2020/12/31 10:35:55;;;;;;;7.23;6.53;;;7.50;99.90;;;;;;6253426;28;20471;-66
2020/12/31 10:38:57;;;;;;;8.40;6.57;;;7.50;99.90;;;;;;6253712;28;20815;-68
2020/12/31 10:42:00;;;;;;;8.90;6.37;;;7.40;99.90;;;;;;6253279;28;20809;-68
2020/12/31 10:45:02;;;;;;;7.03;6.23;;;7.50;99.90;;;;;;6253206;28;20475;-66
2020/12/31 10:48:07;;;;;;;8.67;7.77;;;7.60;99.90;;;;;;6251854;28;20467;-66
2020/12/31 10:51:10;;;;;;;8.10;6.90;;;7.50;99.90;;;;;;6252667;28;20535;-65
2020/12/31 10:54:12;;;;;;;7.73;7.00;;;7.60;99.90;;;;;;6252816;28;20967;-65
2020/12/31 10:57:14;;;;;;;8.00;7.20;;;7.70;99.90;;;;;;6257970;28;20470;-65
2020/12/31 11:00:17;;;;;;;7.77;7.07;;;7.70;99.90;;;;;;6277429;28;20485;-66
2020/12/31 11:03:19;;;;;;;7.37;6.67;;;7.80;99.90;;;;;;6277471;28;20989;-66
2020/12/31 11:06:25;;;;;;;7.37;6.63;;;7.90;99.90;;;;;;6277457;28;20474;-68
2020/12/31 11:09:29;;;;;;;6.90;6.37;;;8.00;99.90;;;;;;6276688;28;20478;-66
2020/12/31 11:12:31;;;;;;;7.20;6.60;;;8.10;99.70;;;;;;6277056;28;20812;-69
2020/12/31 11:15:33;;;;;;;6.70;6.10;;;8.20;99.60;;;;;;6277300;28;20550;-65
2020/12/31 11:18:36;;;;;;;6.67;5.57;;;8.40;99.60;;;;;;6272949;28;20527;-65
2020/12/31 11:21:39;;;;;;;6.13;5.47;;;9.00;99.30;;;;;;6277291;28;20485;-67
2020/12/31 11:24:41;;;;;;;8.23;5.20;;;12.30;94.30;;;;;;6275591;28;20474;-68
2020/12/31 11:27:43;;;;;;;6.50;5.43;;;16.00;83.10;;;;;;6277379;28;20481;-67
2020/12/31 11:30:46;;;;;;;5.67;5.20;;;15.90;72.20;;;;;;6276853;28;20482;-65
2020/12/31 11:33:48;;;;;;;6.63;5.47;;;14.70;74.10;;;;;;6276952;28;20450;-65
2020/12/31 11:36:52;;;;;;;6.83;5.50;;;13.40;75.80;;;;;;6277215;28;20442;-65
2020/12/31 11:39:54;;;;;;;5.10;4.60;;;14.40;77.20;;;;;;6276556;28;20450;-67
2020/12/31 11:42:56;;;;;;;4.70;4.30;;;18.20;67.00;;;;;;6276139;28;20470;-65
2020/12/31 11:45:58;;;;;;;5.00;4.60;;;21.60;55.60;;;;;;6276042;28;20434;-65
2020/12/31 11:49:00;;;;;;;5.63;5.13;;;23.90;45.80;;;;;;6276520;28;20214;-66
2020/12/31 11:52:04;;;;;;;6.43;5.90;;;24.90;42.10;;;;;;6276373;28;20224;-65
2020/12/31 11:55:07;;;;;;;5.20;4.80;;;24.90;39.10;;;;;;6276586;28;20207;-66
2020/12/31 11:58:09;;;;;;;5.80;5.30;;;25.60;37.50;;;;;;6276015;28;20228;-64
2020/12/31 12:01:15;;;;;;;6.63;6.10;;;27.70;34.70;;;;;;6276488;28;20355;-64
2020/12/31 12:04:18;;;;;;;5.87;5.37;;;28.70;31.80;;;;;;6260027;28;20233;-64
2020/12/31 12:07:21;;;;;;;6.87;6.27;;;26.30;32.40;;;;;;6251550;28;20236;-65
2020/12/31 12:10:23;;;;;;;7.13;6.43;;;23.30;36.10;;;;;;6251301;28;20673;-64
2020/12/31 12:13:27;;;;;;;7.30;6.67;;;22.10;38.20;;;;;;6259203;28;20235;-65
2020/12/31 12:16:29;;;;;;;5.97;5.47;;;23.70;38.10;;;;;;6275921;28;20258;-66
2020/12/31 12:19:31;;;;;;;6.70;6.10;;;25.70;34.50;;;;;;6275970;28;20691;-66
2020/12/31 12:22:34;;;;;;;7.40;6.70;;;27.20;32.20;;;;;;6275557;28;20228;-67
2020/12/31 12:25:37;;;;;;;5.97;5.47;;;26.20;31.60;;;;;;6275021;28;20280;-64
2020/12/31 12:28:40;;;;;;;5.30;4.80;;;23.30;35.30;;;;;;6272691;28;20652;-65
2020/12/31 12:31:42;;;;;;;6.43;5.87;;;21.00;39.20;;;;;;6275306;28;20232;-65
2020/12/31 12:34:45;;;;;;;5.33;4.73;;;20.40;40.70;;;;;;6270151;28;20640;-64
2020/12/31 12:37:48;;;;;;;5.03;4.60;;;21.60;40.40;;;;;;6275303;28;20227;-65
2020/12/31 12:40:50;;;;;;;4.80;4.40;;;23.00;38.70;;;;;;6275838;28;20247;-64
2020/12/31 12:43:52;;;;;;;5.23;4.83;;;22.20;38.50;;;;;;6274829;28;20228;-64
2020/12/31 12:46:55;;;;;;;6.83;4.40;;;21.60;39.90;;;;;;6274796;28;20668;-64
2020/12/31 12:49:57;;;;;;;7.03;4.90;;;20.70;40.40;;;;;;6273661;28;20246;-64
2020/12/31 12:53:00;;;;;;;5.50;4.77;;;18.60;43.90;;;;;;6272298;28;20238;-64
2020/12/31 12:56:03;;;;;;;5.00;3.67;;;16.40;48.80;;;;;;6273127;28;20607;-64
2020/12/31 12:59:05;;;;;;;4.40;3.63;;;14.60;52.50;;;;;;6272892;28;20868;-64
2020/12/31 13:02:07;;;;;;;4.50;3.83;;;13.30;56.60;;;;;;6272909;28;20488;-64
2020/12/31 13:05:11;;;;;;;3.60;3.30;;;12.50;59.30;;;;;;6273445;28;20467;-64
2020/12/31 13:08:14;;;;;;;3.70;3.37;;;12.00;62.00;;;;;;6274731;28;20822;-64
2020/12/31 13:11:20;;;;;;;5.13;4.70;;;11.50;65.30;;;;;;6274366;28;20612;-64
2020/12/31 13:14:22;;;;;;;4.27;3.87;;;11.00;69.20;;;;;;6274675;28;20484;-65
2020/12/31 13:17:24;;;;;;;3.70;3.40;;;11.20;71.40;;;;;;6274451;28;20508;-65
2020/12/31 13:20:26;;;;;;;4.37;3.93;;;13.70;67.00;;;;;;6273567;28;20489;-65
2020/12/31 13:23:29;;;;;;;3.23;3.03;;;16.80;55.70;;;;;;6274665;28;20473;-65
2020/12/31 13:26:32;;;;;;;3.23;2.93;;;19.40;51.90;;;;;;6265605;28;20493;-65
2020/12/31 13:29:34;;;;;;;3.50;3.13;;;21.50;45.80;;;;;;6274375;28;20481;-65
2020/12/31 13:32:36;;;;;;;3.80;3.30;;;21.80;41.60;;;;;;6273961;28;20470;-65
2020/12/31 13:35:42;;;;;;;3.17;2.87;;;20.30;43.20;;;;;;6274357;28;20480;-65
2020/12/31 13:38:45;;;;;;;3.10;2.90;;;19.70;44.10;;;;;;6274609;28;20997;-65
2020/12/31 13:41:49;;;;;;;3.33;3.03;;;20.40;43.50;;;;;;6274250;28;20836;-65
2020/12/31 13:44:52;;;;;;;3.50;3.10;;;21.10;41.10;;;;;;6274275;28;20231;-65
2020/12/31 13:47:54;;;;;;;3.13;2.80;;;21.40;41.00;;;;;;6274433;28;20584;-65
2020/12/31 13:50:57;;;;;;;3.50;3.10;;;22.20;39.70;;;;;;6274149;28;20246;-65
2020/12/31 13:54:00;;;;;;;3.20;2.70;;;23.20;37.70;;;;;;6274157;28;20223;-65
2020/12/31 13:57:02;;;;;;;2.40;2.30;;;23.50;36.10;;;;;;6274109;28;20239;-65
2020/12/31 14:00:06;;;;;;;3.20;2.90;;;22.70;35.70;;;;;;6273969;28;20231;-65
2020/12/31 14:03:08;;;;;;;3.37;2.57;;;21.90;37.40;;;;;;6273959;28;20238;-65
2020/12/31 14:06:11;;;;;;;2.67;2.47;;;22.10;37.00;;;;;;6274122;28;20227;-65
2020/12/31 14:09:14;;;;;;;2.13;2.00;;;22.50;37.20;;;;;;6273839;28;20231;-65
2020/12/31 14:12:17;;;;;;;2.20;2.03;;;22.60;36.00;;;;;;6273677;28;20593;-65
2020/12/31 14:15:19;;;;;;;2.20;2.00;;;22.50;36.00;;;;;;6273700;28;20220;-66
2020/12/31 14:18:22;;;;;;;2.77;2.30;;;22.40;35.80;;;;;;6274053;28;20238;-65
2020/12/31 14:21:28;;;;;;;2.40;2.20;;;21.70;36.00;;;;;;6273900;28;20231;-65
2020/12/31 14:24:31;;;;;;;2.13;1.93;;;20.10;38.00;;;;;;6273712;28;20246;-65
2020/12/31 14:27:33;;;;;;;2.33;2.10;;;18.10;40.10;;;;;;6273698;28;20535;-60
2020/12/31 14:30:36;;;;;;;2.83;2.10;;;16.40;43.30;;;;;;6264483;28;20810;-60
2020/12/31 14:33:38;;;;;;;2.60;2.40;;;15.10;46.00;;;;;;6273429;28;20462;-59
2020/12/31 14:36:42;;;;;;;2.70;2.50;;;14.30;48.00;;;;;;6273857;28;20462;-60
2020/12/31 14:39:45;;;;;;;2.50;2.30;;;13.60;49.80;;;;;;6273470;28;20477;-59
2020/12/31 14:42:49;;;;;;;4.37;2.70;;;13.00;51.80;;;;;;6273147;28;20477;-59
2020/12/31 14:45:51;;;;;;;2.97;2.67;;;12.40;53.50;;;;;;6276455;28;20796;-59
2020/12/31 14:48:54;;;;;;;3.07;2.77;;;11.80;55.40;;;;;;6277839;28;20584;-59
2020/12/31 14:51:56;;;;;;;2.97;2.73;;;11.30;57.30;;;;;;6277778;28;20458;-60
2020/12/31 14:54:59;;;;;;;4.27;2.80;;;10.80;58.70;;;;;;6277934;28;20891;-59
2020/12/31 14:58:01;;;;;;;5.03;3.37;;;10.40;60.00;;;;;;6277945;28;20422;-59
2020/12/31 15:01:03;;;;;;;3.50;2.97;;;10.10;62.40;;;;;;6277968;28;20972;-59
2020/12/31 15:04:05;;;;;;;3.13;2.40;;;9.90;66.90;;;;;;6277414;28;20517;-60
2020/12/31 15:07:08;;;;;;;2.77;2.57;;;9.60;67.50;;;;;;6277859;28;20451;-59
2020/12/31 15:10:12;;;;;;;2.87;2.67;;;9.30;67.20;;;;;;6277169;28;20541;-59
2020/12/31 15:13:14;;;;;;;4.00;3.60;;;9.10;68.90;;;;;;6277106;28;20477;-59
2020/12/31 15:16:16;;;;;;;3.47;3.13;;;8.90;70.70;;;;;;6277680;28;20469;-61
2020/12/31 15:19:19;;;;;;;3.40;3.07;;;8.70;72.30;;;;;;6277357;28;20459;-59
2020/12/31 15:22:21;;;;;;;4.13;3.20;;;8.60;73.00;;;;;;6277267;28;20474;-60
2020/12/31 15:25:24;;;;;;;3.63;3.33;;;8.40;74.00;;;;;;6277279;28;20458;-60
2020/12/31 15:28:27;;;;;;;3.63;3.27;;;8.30;75.40;;;;;;6276918;28;20590;-59
2020/12/31 15:31:35;;;;;;;3.50;3.20;;;8.20;76.30;;;;;;6272774;28;20799;-60
2020/12/31 15:34:37;;;;;;;4.23;3.90;;;8.10;77.30;;;;;;6274583;28;20490;-59
2020/12/31 15:37:42;;;;;;;7.53;3.90;;;8.00;78.50;;;;;;6261352;28;20467;-60
2020/12/31 15:40:46;;;;;;;3.87;3.20;;;7.90;79.60;;;;;;6270459;28;20550;-59
2020/12/31 15:43:48;;;;;;;4.47;3.40;;;7.80;80.80;;;;;;6268039;28;20483;-59
2020/12/31 15:46:51;;;;;;;6.80;4.23;;;7.70;81.20;;;;;;6251870;28;20481;-60
2020/12/31 15:49:53;;;;;;;5.13;4.63;;;7.60;82.00;;;;;;6251532;28;20471;-60
2020/12/31 15:52:55;;;;;;;7.17;5.83;;;7.50;82.80;;;;;;6264922;28;20462;-62
2020/12/31 15:55:59;;;;;;;6.57;5.97;;;7.40;84.00;;;;;;6275862;28;20462;-61
2020/12/31 15:59:01;;;;;;;7.20;6.33;;;7.30;85.00;;;;;;6276007;28;20481;-59
2020/12/31 16:02:06;;;;;;;8.10;6.60;;;7.20;86.50;;;;;;6276264;28;20486;-61